Terminal Aerodrome Forecast
Issued by NWS La Crosse, WI

Home | Current Version | Previous Version | Text Only | Print | Product List | Glossary On
Versions: 1 2 3 4 5 6 7 8 9 10 11 12 13 14 15 16 17 18 19 20 21 22 23 24 25 26 27 28 29 30 31 32 33 34 35
000
FTUS43 KARX 271323 AAA
TAFLSE
TAF AMD
KLSE 271323Z 2713/2812 31011KT P6SM -SN SCT008 OVC012
     FM271600 31012KT P6SM OVC010
     FM271800 31014G20KT P6SM BKN015
     FM280000 28007KT P6SM SCT025
     FM280500 24005KT P6SM SCT200=

USA.gov is the U.S. government's official web portal to all federal, state and local government web resources and services.